Weather reports worldwide

Advertisment
Cairnwell, United Kingdom (3072): temperature & dewpoint: 22.02.2017 14:00:00 - 28.02.2017 14:00:00 (GMT)Cairnwell, United Kingdom (3072): wind speed & gusts: 22.02.2017 14:00:00 - 28.02.2017 14:00:00 (GMT)Cairnwell, United Kingdom (3072): wind direction: 22.02.2017 14:00:00 - 28.02.2017 14:00:00 (GMT)
Date & Time tt [°C] td [°C] ff [km/h] ff [kn] fx [km/h] fx [kn] dd
28.02.2017 14:00:00 -2,2 -6,1 54 29 68 37 N
28.02.2017 13:00:00 -2,8 -5,6 54 29 65 35 N
28.02.2017 12:00:00 -3,2 -6,4 41 22 54 29 N
28.02.2017 11:00:00 -4,1 -6,1 41 22 48 26 NNE
28.02.2017 10:00:00 -4,2 -6,7 28 15 - - N
28.02.2017 09:00:00 -4,9 -7,5 21 11 - - N
28.02.2017 08:00:00 -4,8 -6,3 26 14 - - NNE
28.02.2017 07:00:00 -4,7 -5,7 22 12 - - N
28.02.2017 06:00:00 -4,7 -5,8 35 19 - - NW
28.02.2017 05:00:00 -5,4 -6,1 37 20 48 26 NNW
28.02.2017 04:00:00 -5,3 -5,9 - - - - -
28.02.2017 03:00:00 -5,3 -6,1 - - - - -
28.02.2017 02:00:00 -5,9 -6,7 34 18 - - NW
28.02.2017 01:00:00 -5,5 -6,6 22 12 - - N
28.02.2017 00:00:00 -5,4 -6,6 34 18 - - NNW
27.02.2017 23:00:00 -5,8 -7,1 28 15 - - NNW
27.02.2017 22:00:00 -5,3 -6,9 21 11 - - N
27.02.2017 21:00:00 -5,3 -6,8 28 15 - - NNW
27.02.2017 20:00:00 -5,0 -6,8 24 13 - - N
27.02.2017 19:00:00 -5,3 -6,4 28 15 - - NNW
27.02.2017 18:00:00 -4,5 -5,4 13 7 - - NNW
27.02.2017 17:00:00 -4,3 -5,4 16 9 - - NNW
27.02.2017 16:00:00 -4,0 -5,1 9 5 - - SW
27.02.2017 15:00:00 -3,9 -4,6 5 3 - - WSW
27.02.2017 14:00:00 -3,5 -4,1 24 13 - - SSW
27.02.2017 13:00:00 -4,2 -4,6 26 14 - - SSW
27.02.2017 12:00:00 -4,4 -4,8 18 10 - - SSW
27.02.2017 11:00:00 -4,6 -5,2 29 16 52 28 SW
27.02.2017 10:00:00 -4,9 -5,3 39 21 46 25 SSW
27.02.2017 09:00:00 -5,5 -6,0 41 22 50 27 SW
27.02.2017 08:00:00 -5,1 -5,6 31 17 - - SSW
27.02.2017 07:00:00 -4,7 -5,2 34 18 59 32 SW
27.02.2017 06:00:00 -4,3 -4,7 46 25 59 32 SSW
27.02.2017 05:00:00 -3,8 -4,2 44 24 57 31 SSW
27.02.2017 04:00:00 -3,8 -4,2 42 23 72 39 SSW
27.02.2017 03:00:00 -3,5 -3,9 39 21 68 37 SSW
27.02.2017 02:00:00 -3,6 -4,0 48 26 74 40 SSW
27.02.2017 01:00:00 -3,7 -4,1 59 32 78 42 SW
27.02.2017 00:00:00 -3,0 -3,4 52 28 74 40 SW
26.02.2017 23:00:00 -2,7 -3,0 50 27 96 52 SSW
26.02.2017 22:00:00 -3,0 -3,4 80 43 100 54 WSW
26.02.2017 21:00:00 -2,1 -2,3 61 33 106 57 WSW
26.02.2017 20:00:00 -1,5 -1,7 78 42 109 59 WSW
26.02.2017 19:00:00 -1,0 -1,1 74 40 113 61 WSW
26.02.2017 18:00:00 0,1 0,1 70 38 93 50 WSW
26.02.2017 17:00:00 0,4 0,3 59 32 85 46 WSW
26.02.2017 16:00:00 0,4 0,3 29 16 59 32 SSW
26.02.2017 15:00:00 1,3 1,2 48 26 74 40 S
26.02.2017 14:00:00 1,1 1,0 57 31 74 40 S
26.02.2017 13:00:00 1,5 1,4 57 31 78 42 S
26.02.2017 12:00:00 1,5 1,4 63 34 89 48 SSW
26.02.2017 11:00:00 0,9 0,8 65 35 78 42 SSW
26.02.2017 10:00:00 0,0 -0,1 68 37 80 43 SSW
26.02.2017 09:00:00 -1,0 -1,2 59 32 70 38 S
26.02.2017 08:00:00 -0,9 -1,1 61 33 78 42 SSW
26.02.2017 07:00:00 -0,8 -0,9 61 33 76 41 S
26.02.2017 06:00:00 -1,0 -1,1 57 31 72 39 S
26.02.2017 05:00:00 -1,5 -1,7 42 23 61 33 SSW
26.02.2017 04:00:00 -1,5 -1,6 44 24 54 29 SSW
26.02.2017 03:00:00 -1,4 -1,5 35 19 46 25 SSW
26.02.2017 02:00:00 -1,2 -1,3 26 14 - - SSW
26.02.2017 01:00:00 -1,1 -1,2 28 15 - - SSW
26.02.2017 00:00:00 -1,1 -1,2 24 13 - - SW
25.02.2017 23:00:00 -1,0 -1,1 15 8 - - SSW
25.02.2017 22:00:00 -1,1 -1,2 22 12 - - SW
25.02.2017 21:00:00 -1,1 -1,4 11 6 - - SSW
25.02.2017 20:00:00 -0,8 -1,0 13 7 - - S
25.02.2017 19:00:00 0,1 -1,2 21 11 - - WSW
25.02.2017 18:00:00 0,3 -1,5 35 19 54 29 W
25.02.2017 17:00:00 0,8 -0,2 18 10 83 45 WNW
25.02.2017 16:00:00 1,8 -0,4 15 8 67 36 W
25.02.2017 15:00:00 1,6 0,6 31 17 83 45 WNW
25.02.2017 14:00:00 1,6 1,1 63 34 80 43 WNW
25.02.2017 13:00:00 2,7 2,6 48 26 89 48 W
25.02.2017 12:00:00 3,1 3,1 52 28 70 38 WSW
25.02.2017 11:00:00 2,9 2,9 57 31 78 42 SW
25.02.2017 10:00:00 2,2 2,1 57 31 83 45 SW
25.02.2017 09:00:00 1,8 1,8 59 32 81 44 SSW
25.02.2017 08:00:00 1,6 1,5 65 35 - - SW
25.02.2017 07:00:00 1,5 1,4 67 36 100 54 SW
25.02.2017 06:00:00 1,2 1,2 59 32 94 51 SW
25.02.2017 05:00:00 1,3 1,2 81 44 104 56 SW
25.02.2017 04:00:00 0,3 0,2 70 38 96 52 SW
25.02.2017 03:00:00 0,0 -0,1 72 39 91 49 SSW
25.02.2017 02:00:00 -0,2 -0,3 76 41 85 46 SSW
25.02.2017 01:00:00 -0,5 -0,6 72 39 83 45 SSW
25.02.2017 00:00:00 -1,4 -1,6 57 31 83 45 SSW
24.02.2017 23:00:00 -1,9 -2,1 61 33 81 44 S
24.02.2017 22:00:00 -1,4 -1,7 74 40 87 47 S
24.02.2017 21:00:00 -2,0 -2,2 59 32 76 41 S
24.02.2017 20:00:00 -2,6 -2,9 61 33 74 40 S
24.02.2017 19:00:00 -2,0 -2,3 67 36 78 42 S
24.02.2017 18:00:00 -2,3 -2,6 55 30 63 34 S
24.02.2017 17:00:00 -3,0 -3,3 41 22 46 25 SSW
24.02.2017 16:00:00 -2,5 -2,9 35 19 - - SSW
24.02.2017 15:00:00 -2,6 -3,0 26 14 - - SW
24.02.2017 14:00:00 -2,5 -3,1 16 9 - - SSW
24.02.2017 13:00:00 -2,7 -3,1 24 13 - - WSW
24.02.2017 12:00:00 -3,0 -3,3 16 9 - - SW
24.02.2017 11:00:00 -2,8 -2,9 11 6 - - WSW
24.02.2017 10:00:00 -2,9 -3,0 11 6 - - SSW
24.02.2017 09:00:00 -3,7 -4,0 9 5 - - WSW
24.02.2017 08:00:00 -3,7 -4,1 13 7 - - WNW
24.02.2017 07:00:00 -3,4 -3,8 8 4 - - W
24.02.2017 06:00:00 -3,7 -4,1 2 1 - - W
24.02.2017 05:00:00 -3,6 -4,1 8 4 - - N
24.02.2017 04:00:00 -3,8 -4,3 18 10 - - NNE
24.02.2017 03:00:00 -3,2 -3,5 31 17 - - NW
24.02.2017 02:00:00 -3,4 -3,7 24 13 - - NW
24.02.2017 01:00:00 -3,7 -4,1 22 12 - - NW
24.02.2017 00:00:00 -3,8 -4,2 18 10 - - WNW
23.02.2017 23:00:00 -3,5 -3,9 26 14 - - W
23.02.2017 22:00:00 -4,0 -4,4 16 9 - - WNW
23.02.2017 21:00:00 -4,1 -4,6 24 13 - - NW
23.02.2017 20:00:00 -4,0 -4,5 22 12 - - NNW
23.02.2017 19:00:00 -4,2 -4,6 37 20 50 27 N
23.02.2017 18:00:00 -3,6 -4,0 42 23 55 30 NNW
23.02.2017 17:00:00 -3,4 -3,8 41 22 65 35 N
23.02.2017 16:00:00 -3,2 -3,5 55 30 76 41 N
23.02.2017 15:00:00 -3,0 -3,3 54 29 80 43 N
23.02.2017 14:00:00 -2,9 -3,2 70 38 80 43 N
23.02.2017 13:00:00 -2,7 -3,0 67 36 96 52 NNE
23.02.2017 12:00:00 -3,1 -3,4 68 37 81 44 NNE
23.02.2017 11:00:00 -3,2 -3,5 63 34 76 41 NNE
23.02.2017 10:00:00 -3,5 -3,8 52 28 63 34 NNE
23.02.2017 09:00:00 -3,6 -4,0 42 23 87 47 NE
23.02.2017 08:00:00 -3,9 -4,3 76 41 91 49 E
23.02.2017 07:00:00 -3,7 -4,0 55 30 68 37 ENE
23.02.2017 06:00:00 -3,7 -4,1 31 17 55 30 E
23.02.2017 05:00:00 -3,5 -3,9 35 19 54 29 E
23.02.2017 04:00:00 -3,6 -4,0 34 18 48 26 E
23.02.2017 03:00:00 -2,8 -4,5 28 15 - - ESE
23.02.2017 02:00:00 -3,3 -3,9 15 8 - - SSE
23.02.2017 01:00:00 -2,5 -3,6 9 5 - - S
23.02.2017 00:00:00 -2,3 -3,4 8 4 - - W
22.02.2017 23:00:00 -2,7 -3,5 16 9 52 28 WNW
22.02.2017 22:00:00 -2,6 -3,5 34 18 65 35 WNW
22.02.2017 21:00:00 -2,8 -3,4 34 18 55 30 WNW
22.02.2017 20:00:00 -2,7 -3,0 44 24 76 41 NW
22.02.2017 19:00:00 -2,5 -2,7 65 35 83 45 WNW
22.02.2017 18:00:00 -2,3 -2,8 68 37 94 51 WNW
22.02.2017 17:00:00 -2,1 -3,3 78 42 102 55 WNW
22.02.2017 16:00:00 -1,5 -2,7 74 40 111 60 WNW
22.02.2017 15:00:00 -1,0 -2,5 72 39 115 62 WNW
22.02.2017 14:00:00 -1,3 -2,0 76 41 113 61 W

tt = temperature
td = dewpoint
ff = wind speed
fx = gusts
dd = wind direction

Next stations